Earith, United Kingdom
Current Conditions -  °F | °C
As of 3:20 PM on Friday 19 Dec 2014 (Local Time) from EGSC Reporting Station
Scattered Clouds Scattered Clouds  
Wind Chill: 40°   Ceiling: Unl
Heat Index: 46°   Visibility: 6mi
Dew Point: 36°   Wind: 16mph
Humidity: 66%   Direction: 250°WSW
Pressure: 30"   Gusts: NA
Location:  52.35°N, 0.03°E
Report Text: EGSC 191520Z 25014KT 220V280 9999 SCT035 08/02 Q1016
Loading
Personal Weather Stations






























Interactive Weather Map New forecast layout! Learn more

10-Day Weather Forecast

Advertisements
Track Severe Weather on mobile